sensor_id;sensor_type;location;lat;lon;timestamp;P1;durP1;ratioP1;P2;durP2;ratioP2
33098;SDS011;19465;49.016;11.414;2024-03-23T00:53:26;9.45;;;6.75;;
33098;SDS011;19465;49.016;11.414;2024-03-23T00:55:52;13.02;;;7.55;;
33098;SDS011;19465;49.016;11.414;2024-03-23T00:58:18;11.27;;;7.82;;
33098;SDS011;19465;49.016;11.414;2024-03-23T01:00:43;8.95;;;6.70;;
33098;SDS011;19465;49.016;11.414;2024-03-23T01:03:09;8.88;;;7.20;;
33098;SDS011;19465;49.016;11.414;2024-03-23T01:05:34;8.55;;;6.60;;
33098;SDS011;19465;49.016;11.414;2024-03-23T01:08:00;12.27;;;7.15;;
33098;SDS011;19465;49.016;11.414;2024-03-23T01:10:25;10.90;;;7.80;;
33098;SDS011;19465;49.016;11.414;2024-03-23T01:12:51;11.00;;;7.28;;
33098;SDS011;19465;49.016;11.414;2024-03-23T01:15:16;11.10;;;7.22;;
33098;SDS011;19465;49.016;11.414;2024-03-23T01:17:42;9.07;;;7.00;;
33098;SDS011;19465;49.016;11.414;2024-03-23T01:20:07;12.80;;;7.93;;
33098;SDS011;19465;49.016;11.414;2024-03-23T01:22:33;14.90;;;7.72;;
33098;SDS011;19465;49.016;11.414;2024-03-23T01:24:59;12.73;;;7.50;;
33098;SDS011;19465;49.016;11.414;2024-03-23T01:27:24;10.73;;;7.55;;
33098;SDS011;19465;49.016;11.414;2024-03-23T01:29:50;12.95;;;7.80;;
33098;SDS011;19465;49.016;11.414;2024-03-23T01:32:17;12.50;;;8.30;;
33098;SDS011;19465;49.016;11.414;2024-03-23T01:34:43;11.20;;;7.60;;
33098;SDS011;19465;49.016;11.414;2024-03-23T01:37:09;11.93;;;8.30;;
33098;SDS011;19465;49.016;11.414;2024-03-23T01:39:35;12.52;;;7.65;;
33098;SDS011;19465;49.016;11.414;2024-03-23T01:42:00;10.10;;;7.78;;
33098;SDS011;19465;49.016;11.414;2024-03-23T01:44:26;10.30;;;7.18;;
33098;SDS011;19465;49.016;11.414;2024-03-23T01:46:51;10.32;;;7.80;;
33098;SDS011;19465;49.016;11.414;2024-03-23T01:49:17;13.77;;;8.32;;
33098;SDS011;19465;49.016;11.414;2024-03-23T01:51:43;12.18;;;7.78;;
33098;SDS011;19465;49.016;11.414;2024-03-23T01:54:09;12.30;;;7.40;;
33098;SDS011;19465;49.016;11.414;2024-03-23T01:56:35;12.32;;;7.95;;
33098;SDS011;19465;49.016;11.414;2024-03-23T01:59:04;9.38;;;7.55;;
33098;SDS011;19465;49.016;11.414;2024-03-23T02:01:30;13.50;;;8.15;;
33098;SDS011;19465;49.016;11.414;2024-03-23T02:03:56;11.13;;;8.27;;
33098;SDS011;19465;49.016;11.414;2024-03-23T02:06:22;12.13;;;8.10;;
33098;SDS011;19465;49.016;11.414;2024-03-23T02:08:49;12.30;;;8.43;;
33098;SDS011;19465;49.016;11.414;2024-03-23T02:11:14;9.85;;;7.60;;
33098;SDS011;19465;49.016;11.414;2024-03-23T02:13:40;10.18;;;7.72;;
33098;SDS011;19465;49.016;11.414;2024-03-23T02:16:06;11.00;;;7.35;;
33098;SDS011;19465;49.016;11.414;2024-03-23T02:18:35;11.05;;;7.68;;
33098;SDS011;19465;49.016;11.414;2024-03-23T02:21:00;11.70;;;7.90;;
33098;SDS011;19465;49.016;11.414;2024-03-23T02:23:26;11.60;;;8.00;;
33098;SDS011;19465;49.016;11.414;2024-03-23T02:25:52;9.38;;;7.53;;
33098;SDS011;19465;49.016;11.414;2024-03-23T02:28:20;10.55;;;7.65;;
33098;SDS011;19465;49.016;11.414;2024-03-23T02:30:47;11.20;;;8.27;;
33098;SDS011;19465;49.016;11.414;2024-03-23T02:33:15;9.80;;;7.60;;
33098;SDS011;19465;49.016;11.414;2024-03-23T02:35:41;10.10;;;7.53;;
33098;SDS011;19465;49.016;11.414;2024-03-23T02:38:08;11.20;;;7.47;;
33098;SDS011;19465;49.016;11.414;2024-03-23T02:40:34;9.27;;;7.78;;
33098;SDS011;19465;49.016;11.414;2024-03-23T02:42:59;10.32;;;7.45;;
33098;SDS011;19465;49.016;11.414;2024-03-23T02:45:25;12.20;;;7.95;;
33098;SDS011;19465;49.016;11.414;2024-03-23T02:47:50;13.07;;;7.30;;
33098;SDS011;19465;49.016;11.414;2024-03-23T02:50:17;12.23;;;7.72;;
33098;SDS011;19465;49.016;11.414;2024-03-23T02:52:43;10.13;;;7.65;;
33098;SDS011;19465;49.016;11.414;2024-03-23T02:55:09;9.18;;;6.63;;
33098;SDS011;19465;49.016;11.414;2024-03-23T02:57:35;9.75;;;7.05;;
33098;SDS011;19465;49.016;11.414;2024-03-23T03:00:00;11.27;;;6.75;;
33098;SDS011;19465;49.016;11.414;2024-03-23T03:02:26;8.23;;;6.85;;
33098;SDS011;19465;49.016;11.414;2024-03-23T03:04:51;10.63;;;8.23;;
33098;SDS011;19465;49.016;11.414;2024-03-23T03:07:17;9.95;;;7.28;;
33098;SDS011;19465;49.016;11.414;2024-03-23T03:09:42;10.32;;;6.88;;
33098;SDS011;19465;49.016;11.414;2024-03-23T03:12:08;11.40;;;6.82;;
33098;SDS011;19465;49.016;11.414;2024-03-23T03:14:34;9.43;;;6.38;;
33098;SDS011;19465;49.016;11.414;2024-03-23T03:16:59;10.05;;;7.32;;
33098;SDS011;19465;49.016;11.414;2024-03-23T03:19:25;10.10;;;6.95;;
33098;SDS011;19465;49.016;11.414;2024-03-23T03:21:52;10.90;;;6.65;;
33098;SDS011;19465;49.016;11.414;2024-03-23T03:24:18;12.52;;;6.45;;
33098;SDS011;19465;49.016;11.414;2024-03-23T03:26:43;9.55;;;6.20;;
33098;SDS011;19465;49.016;11.414;2024-03-23T03:29:09;8.52;;;6.18;;
33098;SDS011;19465;49.016;11.414;2024-03-23T03:31:36;10.35;;;6.00;;
33098;SDS011;19465;49.016;11.414;2024-03-23T03:34:02;7.25;;;6.10;;
33098;SDS011;19465;49.016;11.414;2024-03-23T03:36:28;12.18;;;6.03;;
33098;SDS011;19465;49.016;11.414;2024-03-23T03:38:53;7.28;;;5.70;;
33098;SDS011;19465;49.016;11.414;2024-03-23T03:41:19;7.85;;;5.80;;
33098;SDS011;19465;49.016;11.414;2024-03-23T03:43:44;8.88;;;5.78;;
33098;SDS011;19465;49.016;11.414;2024-03-23T03:46:10;8.27;;;5.65;;
33098;SDS011;19465;49.016;11.414;2024-03-23T03:48:36;9.38;;;6.05;;
33098;SDS011;19465;49.016;11.414;2024-03-23T03:51:02;10.13;;;6.00;;
33098;SDS011;19465;49.016;11.414;2024-03-23T03:53:28;9.10;;;5.38;;
33098;SDS011;19465;49.016;11.414;2024-03-23T03:55:53;8.57;;;5.53;;
33098;SDS011;19465;49.016;11.414;2024-03-23T03:58:19;9.38;;;5.75;;
33098;SDS011;19465;49.016;11.414;2024-03-23T04:00:44;7.65;;;5.45;;
33098;SDS011;19465;49.016;11.414;2024-03-23T04:03:10;7.15;;;5.20;;
33098;SDS011;19465;49.016;11.414;2024-03-23T04:05:35;7.80;;;5.07;;
33098;SDS011;19465;49.016;11.414;2024-03-23T04:08:01;7.85;;;4.55;;
33098;SDS011;19465;49.016;11.414;2024-03-23T04:10:26;9.45;;;5.10;;
33098;SDS011;19465;49.016;11.414;2024-03-23T04:12:52;8.25;;;5.32;;
33098;SDS011;19465;49.016;11.414;2024-03-23T04:15:18;8.30;;;4.60;;
33098;SDS011;19465;49.016;11.414;2024-03-23T04:17:44;6.65;;;4.68;;
33098;SDS011;19465;49.016;11.414;2024-03-23T04:20:10;8.00;;;5.03;;
33098;SDS011;19465;49.016;11.414;2024-03-23T04:22:38;6.43;;;4.43;;
33098;SDS011;19465;49.016;11.414;2024-03-23T04:25:04;5.70;;;4.22;;
33098;SDS011;19465;49.016;11.414;2024-03-23T04:27:34;7.88;;;4.38;;
33098;SDS011;19465;49.016;11.414;2024-03-23T04:30:00;7.88;;;4.63;;
33098;SDS011;19465;49.016;11.414;2024-03-23T04:32:26;7.65;;;4.50;;
33098;SDS011;19465;49.016;11.414;2024-03-23T04:34:52;7.80;;;4.40;;
33098;SDS011;19465;49.016;11.414;2024-03-23T04:37:19;10.07;;;5.25;;
33098;SDS011;19465;49.016;11.414;2024-03-23T04:39:45;6.60;;;4.70;;
33098;SDS011;19465;49.016;11.414;2024-03-23T04:42:11;6.00;;;4.45;;
33098;SDS011;19465;49.016;11.414;2024-03-23T04:44:37;5.93;;;4.25;;
33098;SDS011;19465;49.016;11.414;2024-03-23T04:47:02;5.75;;;4.07;;
33098;SDS011;19465;49.016;11.414;2024-03-23T04:49:28;8.27;;;4.53;;
33098;SDS011;19465;49.016;11.414;2024-03-23T04:51:54;6.90;;;4.47;;
33098;SDS011;19465;49.016;11.414;2024-03-23T04:54:19;5.18;;;4.18;;
33098;SDS011;19465;49.016;11.414;2024-03-23T04:56:45;8.00;;;4.22;;
33098;SDS011;19465;49.016;11.414;2024-03-23T04:59:11;7.15;;;4.32;;
33098;SDS011;19465;49.016;11.414;2024-03-23T05:01:36;5.75;;;3.92;;
33098;SDS011;19465;49.016;11.414;2024-03-23T05:04:04;7.75;;;4.30;;
33098;SDS011;19465;49.016;11.414;2024-03-23T05:06:30;8.38;;;4.10;;
33098;SDS011;19465;49.016;11.414;2024-03-23T05:08:56;6.47;;;4.10;;
33098;SDS011;19465;49.016;11.414;2024-03-23T05:11:21;7.07;;;3.63;;
33098;SDS011;19465;49.016;11.414;2024-03-23T05:13:47;6.30;;;3.90;;
33098;SDS011;19465;49.016;11.414;2024-03-23T05:16:12;7.32;;;4.40;;
33098;SDS011;19465;49.016;11.414;2024-03-23T05:18:38;7.30;;;3.95;;
33098;SDS011;19465;49.016;11.414;2024-03-23T05:21:03;9.40;;;4.57;;
33098;SDS011;19465;49.016;11.414;2024-03-23T05:23:29;9.57;;;4.30;;
33098;SDS011;19465;49.016;11.414;2024-03-23T05:25:55;5.22;;;4.03;;
33098;SDS011;19465;49.016;11.414;2024-03-23T05:28:21;4.97;;;4.00;;
33098;SDS011;19465;49.016;11.414;2024-03-23T05:30:53;6.13;;;3.53;;
33098;SDS011;19465;49.016;11.414;2024-03-23T05:33:19;5.40;;;3.40;;
33098;SDS011;19465;49.016;11.414;2024-03-23T05:35:45;6.78;;;3.85;;
33098;SDS011;19465;49.016;11.414;2024-03-23T05:38:12;6.10;;;4.38;;
33098;SDS011;19465;49.016;11.414;2024-03-23T05:40:39;7.55;;;4.50;;
33098;SDS011;19465;49.016;11.414;2024-03-23T05:43:05;5.05;;;3.60;;
33098;SDS011;19465;49.016;11.414;2024-03-23T05:45:32;5.72;;;3.92;;
33098;SDS011;19465;49.016;11.414;2024-03-23T05:47:57;5.80;;;4.00;;
33098;SDS011;19465;49.016;11.414;2024-03-23T05:50:23;5.15;;;3.65;;
33098;SDS011;19465;49.016;11.414;2024-03-23T05:52:49;4.45;;;3.20;;
33098;SDS011;19465;49.016;11.414;2024-03-23T05:55:15;6.03;;;3.70;;
33098;SDS011;19465;49.016;11.414;2024-03-23T05:57:40;7.10;;;3.30;;
33098;SDS011;19465;49.016;11.414;2024-03-23T06:00:06;5.85;;;3.53;;
33098;SDS011;19465;49.016;11.414;2024-03-23T06:02:43;4.88;;;3.47;;
33098;SDS011;19465;49.016;11.414;2024-03-23T06:05:10;4.47;;;3.40;;
33098;SDS011;19465;49.016;11.414;2024-03-23T06:07:38;5.75;;;3.55;;
33098;SDS011;19465;49.016;11.414;2024-03-23T06:10:04;4.97;;;3.30;;
33098;SDS011;19465;49.016;11.414;2024-03-23T06:12:31;5.68;;;3.30;;
33098;SDS011;19465;49.016;11.414;2024-03-23T06:14:57;7.30;;;3.83;;
33098;SDS011;19465;49.016;11.414;2024-03-23T06:17:22;6.93;;;3.55;;
33098;SDS011;19465;49.016;11.414;2024-03-23T06:19:48;5.72;;;3.92;;
33098;SDS011;19465;49.016;11.414;2024-03-23T06:22:14;6.43;;;3.53;;
33098;SDS011;19465;49.016;11.414;2024-03-23T06:24:40;6.43;;;3.80;;
33098;SDS011;19465;49.016;11.414;2024-03-23T06:27:05;7.20;;;3.78;;
33098;SDS011;19465;49.016;11.414;2024-03-23T06:29:31;5.68;;;3.10;;
33098;SDS011;19465;49.016;11.414;2024-03-23T06:31:57;4.70;;;3.40;;
33098;SDS011;19465;49.016;11.414;2024-03-23T06:34:23;4.68;;;3.33;;
33098;SDS011;19465;49.016;11.414;2024-03-23T06:36:48;4.18;;;3.10;;
33098;SDS011;19465;49.016;11.414;2024-03-23T06:39:14;5.13;;;3.78;;
33098;SDS011;19465;49.016;11.414;2024-03-23T06:41:51;6.30;;;3.22;;
33098;SDS011;19465;49.016;11.414;2024-03-23T06:44:18;3.97;;;3.25;;
33098;SDS011;19465;49.016;11.414;2024-03-23T06:46:44;5.05;;;3.33;;
33098;SDS011;19465;49.016;11.414;2024-03-23T06:49:09;6.70;;;2.83;;
33098;SDS011;19465;49.016;11.414;2024-03-23T06:51:35;4.97;;;3.60;;
33098;SDS011;19465;49.016;11.414;2024-03-23T06:54:02;5.20;;;3.78;;
33098;SDS011;19465;49.016;11.414;2024-03-23T06:56:28;6.78;;;3.50;;
33098;SDS011;19465;49.016;11.414;2024-03-23T06:58:54;5.47;;;3.75;;
33098;SDS011;19465;49.016;11.414;2024-03-23T07:01:20;5.55;;;3.35;;
33098;SDS011;19465;49.016;11.414;2024-03-23T07:03:46;4.88;;;3.53;;
33098;SDS011;19465;49.016;11.414;2024-03-23T07:06:11;16.23;;;4.78;;
33098;SDS011;19465;49.016;11.414;2024-03-23T07:08:37;7.72;;;4.40;;
33098;SDS011;19465;49.016;11.414;2024-03-23T07:11:03;6.68;;;5.30;;
33098;SDS011;19465;49.016;11.414;2024-03-23T07:13:29;7.75;;;5.82;;
33098;SDS011;19465;49.016;11.414;2024-03-23T07:15:55;9.40;;;6.90;;
33098;SDS011;19465;49.016;11.414;2024-03-23T07:18:22;7.88;;;6.40;;
33098;SDS011;19465;49.016;11.414;2024-03-23T07:20:57;9.40;;;6.45;;
33098;SDS011;19465;49.016;11.414;2024-03-23T07:23:23;9.90;;;7.53;;
33098;SDS011;19465;49.016;11.414;2024-03-23T07:26:02;10.23;;;7.18;;
33098;SDS011;19465;49.016;11.414;2024-03-23T07:28:33;11.07;;;7.93;;
33098;SDS011;19465;49.016;11.414;2024-03-23T07:31:06;10.98;;;7.78;;
33098;SDS011;19465;49.016;11.414;2024-03-23T07:33:46;10.40;;;7.57;;
33098;SDS011;19465;49.016;11.414;2024-03-23T07:36:13;9.02;;;6.38;;
33098;SDS011;19465;49.016;11.414;2024-03-23T07:38:42;8.95;;;6.82;;
33098;SDS011;19465;49.016;11.414;2024-03-23T07:41:10;7.45;;;4.95;;
33098;SDS011;19465;49.016;11.414;2024-03-23T07:43:43;11.57;;;8.48;;
33098;SDS011;19465;49.016;11.414;2024-03-23T07:46:09;8.60;;;6.88;;
33098;SDS011;19465;49.016;11.414;2024-03-23T07:48:36;21.02;;;12.13;;
33098;SDS011;19465;49.016;11.414;2024-03-23T07:51:03;20.42;;;11.90;;
33098;SDS011;19465;49.016;11.414;2024-03-23T07:53:31;9.05;;;7.03;;
33098;SDS011;19465;49.016;11.414;2024-03-23T07:55:57;9.00;;;6.65;;
33098;SDS011;19465;49.016;11.414;2024-03-23T07:58:24;13.35;;;11.95;;
33098;SDS011;19465;49.016;11.414;2024-03-23T08:00:50;12.32;;;9.15;;
33098;SDS011;19465;49.016;11.414;2024-03-23T08:03:15;9.65;;;6.68;;
33098;SDS011;19465;49.016;11.414;2024-03-23T08:05:41;10.05;;;8.63;;
33098;SDS011;19465;49.016;11.414;2024-03-23T08:08:07;9.52;;;6.95;;
33098;SDS011;19465;49.016;11.414;2024-03-23T08:10:32;12.88;;;8.02;;
33098;SDS011;19465;49.016;11.414;2024-03-23T08:12:58;25.73;;;13.55;;
33098;SDS011;19465;49.016;11.414;2024-03-23T08:15:24;15.68;;;10.95;;
33098;SDS011;19465;49.016;11.414;2024-03-23T08:17:49;11.80;;;7.93;;
33098;SDS011;19465;49.016;11.414;2024-03-23T08:20:15;9.18;;;6.18;;
33098;SDS011;19465;49.016;11.414;2024-03-23T08:22:41;9.43;;;6.82;;
33098;SDS011;19465;49.016;11.414;2024-03-23T08:25:06;10.02;;;7.10;;
33098;SDS011;19465;49.016;11.414;2024-03-23T08:27:32;9.38;;;6.00;;
33098;SDS011;19465;49.016;11.414;2024-03-23T08:29:58;8.05;;;5.65;;
33098;SDS011;19465;49.016;11.414;2024-03-23T08:32:23;8.27;;;6.07;;
33098;SDS011;19465;49.016;11.414;2024-03-23T08:34:49;9.07;;;6.38;;
33098;SDS011;19465;49.016;11.414;2024-03-23T08:37:14;8.18;;;5.32;;
33098;SDS011;19465;49.016;11.414;2024-03-23T08:39:40;8.07;;;5.80;;
33098;SDS011;19465;49.016;11.414;2024-03-23T08:42:08;6.80;;;5.25;;
33098;SDS011;19465;49.016;11.414;2024-03-23T08:44:33;9.73;;;5.03;;
33098;SDS011;19465;49.016;11.414;2024-03-23T08:46:59;7.07;;;4.90;;
33098;SDS011;19465;49.016;11.414;2024-03-23T08:49:24;7.70;;;4.90;;
33098;SDS011;19465;49.016;11.414;2024-03-23T08:51:50;7.43;;;5.45;;
33098;SDS011;19465;49.016;11.414;2024-03-23T08:54:16;7.32;;;4.47;;
33098;SDS011;19465;49.016;11.414;2024-03-23T08:56:42;8.25;;;4.72;;
33098;SDS011;19465;49.016;11.414;2024-03-23T08:59:07;7.15;;;4.38;;
33098;SDS011;19465;49.016;11.414;2024-03-23T09:01:33;7.57;;;4.70;;
33098;SDS011;19465;49.016;11.414;2024-03-23T09:03:58;6.93;;;4.65;;
33098;SDS011;19465;49.016;11.414;2024-03-23T09:06:24;7.13;;;4.80;;
33098;SDS011;19465;49.016;11.414;2024-03-23T09:08:50;6.32;;;4.18;;
33098;SDS011;19465;49.016;11.414;2024-03-23T09:11:15;5.55;;;3.92;;
33098;SDS011;19465;49.016;11.414;2024-03-23T09:13:41;5.15;;;3.95;;
33098;SDS011;19465;49.016;11.414;2024-03-23T09:16:06;5.80;;;4.38;;
33098;SDS011;19465;49.016;11.414;2024-03-23T09:18:34;7.72;;;4.70;;
33098;SDS011;19465;49.016;11.414;2024-03-23T09:21:00;4.63;;;3.50;;
33098;SDS011;19465;49.016;11.414;2024-03-23T09:23:26;5.18;;;3.60;;
33098;SDS011;19465;49.016;11.414;2024-03-23T09:25:52;4.40;;;3.35;;
33098;SDS011;19465;49.016;11.414;2024-03-23T09:28:17;3.42;;;2.20;;
33098;SDS011;19465;49.016;11.414;2024-03-23T09:30:43;2.70;;;1.90;;
33098;SDS011;19465;49.016;11.414;2024-03-23T09:33:09;3.25;;;1.30;;
33098;SDS011;19465;49.016;11.414;2024-03-23T09:35:38;1.73;;;1.00;;
33098;SDS011;19465;49.016;11.414;2024-03-23T09:38:04;2.22;;;1.20;;
33098;SDS011;19465;49.016;11.414;2024-03-23T09:40:32;5.88;;;1.48;;
33098;SDS011;19465;49.016;11.414;2024-03-23T09:42:58;2.35;;;0.90;;
33098;SDS011;19465;49.016;11.414;2024-03-23T09:45:26;1.20;;;0.98;;
33098;SDS011;19465;49.016;11.414;2024-03-23T09:47:53;3.00;;;1.13;;
33098;SDS011;19465;49.016;11.414;2024-03-23T09:50:20;6.45;;;4.70;;
33098;SDS011;19465;49.016;11.414;2024-03-23T09:52:46;4.45;;;2.38;;
33098;SDS011;19465;49.016;11.414;2024-03-23T09:55:12;2.28;;;1.50;;
33098;SDS011;19465;49.016;11.414;2024-03-23T09:57:38;2.80;;;1.70;;
33098;SDS011;19465;49.016;11.414;2024-03-23T10:00:05;2.63;;;1.60;;
33098;SDS011;19465;49.016;11.414;2024-03-23T10:02:31;2.60;;;1.45;;
33098;SDS011;19465;49.016;11.414;2024-03-23T10:04:57;1.73;;;1.40;;
33098;SDS011;19465;49.016;11.414;2024-03-23T10:07:23;2.28;;;1.52;;
33098;SDS011;19465;49.016;11.414;2024-03-23T10:09:48;1.65;;;1.40;;
33098;SDS011;19465;49.016;11.414;2024-03-23T10:12:17;1.90;;;1.35;;
33098;SDS011;19465;49.016;11.414;2024-03-23T10:14:43;1.52;;;1.30;;
33098;SDS011;19465;49.016;11.414;2024-03-23T10:17:12;1.55;;;1.45;;
33098;SDS011;19465;49.016;11.414;2024-03-23T10:19:45;1.90;;;1.67;;
33098;SDS011;19465;49.016;11.414;2024-03-23T10:22:13;2.40;;;1.73;;
33098;SDS011;19465;49.016;11.414;2024-03-23T10:24:41;2.00;;;1.75;;
33098;SDS011;19465;49.016;11.414;2024-03-23T10:27:07;1.55;;;1.45;;
33098;SDS011;19465;49.016;11.414;2024-03-23T10:29:32;2.83;;;1.83;;
33098;SDS011;19465;49.016;11.414;2024-03-23T10:34:53;3.22;;;2.92;;
33098;SDS011;19465;49.016;11.414;2024-03-23T10:37:18;2.83;;;2.15;;
33098;SDS011;19465;49.016;11.414;2024-03-23T10:39:45;1.50;;;1.40;;
33098;SDS011;19465;49.016;11.414;2024-03-23T10:42:10;1.25;;;1.13;;
33098;SDS011;19465;49.016;11.414;2024-03-23T10:44:36;1.48;;;1.10;;
33098;SDS011;19465;49.016;11.414;2024-03-23T10:47:03;1.20;;;0.98;;
33098;SDS011;19465;49.016;11.414;2024-03-23T10:49:33;2.03;;;1.13;;
33098;SDS011;19465;49.016;11.414;2024-03-23T10:52:01;1.52;;;1.17;;
33098;SDS011;19465;49.016;11.414;2024-03-23T10:54:32;2.53;;;1.60;;
33098;SDS011;19465;49.016;11.414;2024-03-23T10:57:17;1.92;;;1.58;;
33098;SDS011;19465;49.016;11.414;2024-03-23T10:59:46;2.13;;;1.50;;
33098;SDS011;19465;49.016;11.414;2024-03-23T11:02:18;1.67;;;1.42;;
33098;SDS011;19465;49.016;11.414;2024-03-23T11:04:44;2.83;;;2.10;;
33098;SDS011;19465;49.016;11.414;2024-03-23T11:07:31;2.13;;;1.50;;
33098;SDS011;19465;49.016;11.414;2024-03-23T11:09:58;4.55;;;3.28;;
33098;SDS011;19465;49.016;11.414;2024-03-23T11:15:01;0.88;;;0.75;;
33098;SDS011;19465;49.016;11.414;2024-03-23T11:17:31;1.25;;;0.93;;
33098;SDS011;19465;49.016;11.414;2024-03-23T11:20:01;2.03;;;1.20;;
33098;SDS011;19465;49.016;11.414;2024-03-23T11:25:03;2.25;;;1.10;;
33098;SDS011;19465;49.016;11.414;2024-03-23T11:27:37;1.58;;;1.00;;
33098;SDS011;19465;49.016;11.414;2024-03-23T11:30:12;1.73;;;0.90;;
33098;SDS011;19465;49.016;11.414;2024-03-23T11:32:42;2.83;;;1.30;;
33098;SDS011;19465;49.016;11.414;2024-03-23T11:35:08;1.83;;;1.40;;
33098;SDS011;19465;49.016;11.414;2024-03-23T11:37:37;1.80;;;1.23;;
33098;SDS011;19465;49.016;11.414;2024-03-23T11:40:18;1.10;;;0.98;;
33098;SDS011;19465;49.016;11.414;2024-03-23T11:42:44;1.67;;;1.40;;
33098;SDS011;19465;49.016;11.414;2024-03-23T11:45:10;3.80;;;1.30;;
33098;SDS011;19465;49.016;11.414;2024-03-23T11:47:36;2.65;;;1.48;;
33098;SDS011;19465;49.016;11.414;2024-03-23T11:50:01;1.83;;;1.10;;
33098;SDS011;19465;49.016;11.414;2024-03-23T11:52:27;1.88;;;1.70;;
33098;SDS011;19465;49.016;11.414;2024-03-23T11:55:02;5.93;;;3.83;;
33098;SDS011;19465;49.016;11.414;2024-03-23T11:57:28;28.40;;;15.60;;
33098;SDS011;19465;49.016;11.414;2024-03-23T11:59:54;54.53;;;28.13;;
33098;SDS011;19465;49.016;11.414;2024-03-23T12:02:20;11.43;;;9.27;;
33098;SDS011;19465;49.016;11.414;2024-03-23T12:04:45;4.30;;;3.63;;
33098;SDS011;19465;49.016;11.414;2024-03-23T12:07:11;7.47;;;5.45;;
33098;SDS011;19465;49.016;11.414;2024-03-23T12:09:38;6.70;;;4.97;;
33098;SDS011;19465;49.016;11.414;2024-03-23T12:12:08;4.68;;;2.50;;
33098;SDS011;19465;49.016;11.414;2024-03-23T12:14:35;3.13;;;2.20;;
33098;SDS011;19465;49.016;11.414;2024-03-23T12:17:10;4.72;;;2.33;;
33098;SDS011;19465;49.016;11.414;2024-03-23T12:19:37;2.35;;;1.75;;
33098;SDS011;19465;49.016;11.414;2024-03-23T12:22:03;3.03;;;2.05;;
33098;SDS011;19465;49.016;11.414;2024-03-23T12:24:30;3.17;;;1.30;;
33098;SDS011;19465;49.016;11.414;2024-03-23T12:26:59;2.45;;;1.30;;
33098;SDS011;19465;49.016;11.414;2024-03-23T12:29:26;1.90;;;1.45;;
33098;SDS011;19465;49.016;11.414;2024-03-23T12:31:56;4.75;;;1.52;;
33098;SDS011;19465;49.016;11.414;2024-03-23T12:34:24;1.95;;;1.58;;
33098;SDS011;19465;49.016;11.414;2024-03-23T12:36:49;2.70;;;1.83;;
33098;SDS011;19465;49.016;11.414;2024-03-23T12:39:15;2.90;;;1.40;;
33098;SDS011;19465;49.016;11.414;2024-03-23T12:41:40;4.18;;;1.73;;
33098;SDS011;19465;49.016;11.414;2024-03-23T12:44:06;4.43;;;2.15;;
33098;SDS011;19465;49.016;11.414;2024-03-23T12:46:33;5.32;;;2.22;;
33098;SDS011;19465;49.016;11.414;2024-03-23T12:48:59;5.07;;;2.30;;
33098;SDS011;19465;49.016;11.414;2024-03-23T12:51:24;4.35;;;2.30;;
33098;SDS011;19465;49.016;11.414;2024-03-23T12:53:50;4.10;;;2.30;;
33098;SDS011;19465;49.016;11.414;2024-03-23T12:56:15;5.75;;;1.90;;
33098;SDS011;19465;49.016;11.414;2024-03-23T12:58:42;3.97;;;2.13;;
33098;SDS011;19465;49.016;11.414;2024-03-23T13:01:07;4.60;;;2.38;;
33098;SDS011;19465;49.016;11.414;2024-03-23T13:03:32;4.55;;;2.58;;
33098;SDS011;19465;49.016;11.414;2024-03-23T13:05:58;5.38;;;2.40;;
33098;SDS011;19465;49.016;11.414;2024-03-23T13:08:23;6.95;;;2.78;;
33098;SDS011;19465;49.016;11.414;2024-03-23T13:10:52;5.65;;;3.53;;
33098;SDS011;19465;49.016;11.414;2024-03-23T13:13:18;5.07;;;2.80;;
33098;SDS011;19465;49.016;11.414;2024-03-23T13:15:49;7.40;;;4.28;;
33098;SDS011;19465;49.016;11.414;2024-03-23T13:18:15;6.15;;;3.60;;
33098;SDS011;19465;49.016;11.414;2024-03-23T13:20:40;6.88;;;2.40;;
33098;SDS011;19465;49.016;11.414;2024-03-23T13:23:06;7.68;;;3.60;;
33098;SDS011;19465;49.016;11.414;2024-03-23T13:25:31;10.45;;;5.55;;
33098;SDS011;19465;49.016;11.414;2024-03-23T13:27:58;9.88;;;4.15;;
33098;SDS011;19465;49.016;11.414;2024-03-23T13:30:23;8.15;;;2.80;;
33098;SDS011;19465;49.016;11.414;2024-03-23T13:32:49;14.18;;;5.43;;
33098;SDS011;19465;49.016;11.414;2024-03-23T13:35:15;7.47;;;3.65;;
33098;SDS011;19465;49.016;11.414;2024-03-23T13:37:41;9.43;;;4.78;;
33098;SDS011;19465;49.016;11.414;2024-03-23T13:40:06;17.40;;;8.40;;
33098;SDS011;19465;49.016;11.414;2024-03-23T13:42:33;25.48;;;13.23;;
33098;SDS011;19465;49.016;11.414;2024-03-23T13:44:58;19.30;;;10.75;;
33098;SDS011;19465;49.016;11.414;2024-03-23T13:47:24;16.35;;;7.95;;
33098;SDS011;19465;49.016;11.414;2024-03-23T13:49:49;15.15;;;7.72;;
33098;SDS011;19465;49.016;11.414;2024-03-23T13:52:15;15.15;;;8.73;;
33098;SDS011;19465;49.016;11.414;2024-03-23T13:54:41;11.98;;;4.78;;
33098;SDS011;19465;49.016;11.414;2024-03-23T13:57:11;44.08;;;22.10;;
33098;SDS011;19465;49.016;11.414;2024-03-23T13:59:36;19.15;;;9.05;;
33098;SDS011;19465;49.016;11.414;2024-03-23T14:02:02;22.77;;;11.73;;
33098;SDS011;19465;49.016;11.414;2024-03-23T14:04:28;17.10;;;8.07;;
33098;SDS011;19465;49.016;11.414;2024-03-23T14:06:54;10.88;;;5.85;;
33098;SDS011;19465;49.016;11.414;2024-03-23T14:09:20;18.65;;;8.40;;
33098;SDS011;19465;49.016;11.414;2024-03-23T14:11:50;9.00;;;3.88;;
33098;SDS011;19465;49.016;11.414;2024-03-23T14:14:16;7.50;;;2.95;;
33098;SDS011;19465;49.016;11.414;2024-03-23T14:16:42;6.32;;;2.50;;
33098;SDS011;19465;49.016;11.414;2024-03-23T14:19:08;6.32;;;2.78;;
33098;SDS011;19465;49.016;11.414;2024-03-23T14:21:33;7.00;;;2.97;;
33098;SDS011;19465;49.016;11.414;2024-03-23T14:24:00;6.78;;;3.13;;
33098;SDS011;19465;49.016;11.414;2024-03-23T14:26:26;10.50;;;5.05;;
33098;SDS011;19465;49.016;11.414;2024-03-23T14:28:52;8.32;;;3.10;;
33098;SDS011;19465;49.016;11.414;2024-03-23T14:31:17;8.35;;;3.90;;
33098;SDS011;19465;49.016;11.414;2024-03-23T14:33:43;11.40;;;5.10;;
33098;SDS011;19465;49.016;11.414;2024-03-23T14:36:15;10.32;;;3.78;;
33098;SDS011;19465;49.016;11.414;2024-03-23T14:38:42;6.15;;;2.97;;
33098;SDS011;19465;49.016;11.414;2024-03-23T14:41:12;11.18;;;4.32;;
33098;SDS011;19465;49.016;11.414;2024-03-23T14:43:37;11.98;;;3.65;;
33098;SDS011;19465;49.016;11.414;2024-03-23T14:48:40;14.25;;;5.72;;
33098;SDS011;19465;49.016;11.414;2024-03-23T14:51:06;9.07;;;4.93;;
33098;SDS011;19465;49.016;11.414;2024-03-23T14:53:33;6.97;;;3.53;;
33098;SDS011;19465;49.016;11.414;2024-03-23T14:56:05;8.15;;;3.42;;
33098;SDS011;19465;49.016;11.414;2024-03-23T14:58:31;8.15;;;3.65;;
33098;SDS011;19465;49.016;11.414;2024-03-23T15:01:03;5.60;;;2.75;;
33098;SDS011;19465;49.016;11.414;2024-03-23T15:03:33;6.72;;;2.92;;
33098;SDS011;19465;49.016;11.414;2024-03-23T15:05:58;8.10;;;3.28;;
33098;SDS011;19465;49.016;11.414;2024-03-23T15:08:25;8.30;;;3.47;;
33098;SDS011;19465;49.016;11.414;2024-03-23T15:10:50;5.55;;;2.65;;
33098;SDS011;19465;49.016;11.414;2024-03-23T15:13:16;9.98;;;3.10;;
33098;SDS011;19465;49.016;11.414;2024-03-23T15:15:42;9.50;;;3.95;;
33098;SDS011;19465;49.016;11.414;2024-03-23T15:18:12;5.95;;;2.67;;
33098;SDS011;19465;49.016;11.414;2024-03-23T15:20:39;7.05;;;2.13;;
33098;SDS011;19465;49.016;11.414;2024-03-23T15:23:16;7.22;;;2.70;;
33098;SDS011;19465;49.016;11.414;2024-03-23T15:25:42;6.55;;;2.83;;
33098;SDS011;19465;49.016;11.414;2024-03-23T15:28:07;5.32;;;2.42;;
33098;SDS011;19465;49.016;11.414;2024-03-23T15:30:33;5.38;;;1.52;;